createdAt,value
2019-05-21T11:46:02.944Z,21.00
2019-05-21T11:48:32.292Z,21.20
2019-05-21T11:51:04.533Z,21.40
2019-05-21T11:53:33.986Z,21.60
2019-05-21T11:56:04.102Z,21.70
2019-05-21T11:58:39.595Z,21.80
2019-05-21T12:01:06.290Z,21.80
2019-05-21T12:03:36.658Z,21.90
2019-05-21T12:06:06.889Z,22.00
2019-05-21T12:08:37.223Z,22.10
2019-05-21T12:11:07.786Z,22.20
2019-05-21T12:13:38.480Z,22.30
2019-05-21T12:16:08.815Z,22.40
2019-05-21T12:18:39.345Z,22.60
2019-05-21T12:21:09.659Z,22.70
2019-05-21T12:23:39.993Z,22.70
2019-05-21T12:26:10.306Z,22.60
2019-05-21T12:28:40.560Z,22.40
2019-05-21T12:31:10.858Z,22.30
2019-05-21T12:33:41.177Z,22.20
2019-05-21T12:36:11.406Z,22.20
2019-05-21T12:38:41.670Z,22.20
2019-05-21T12:41:13.708Z,22.20
2019-05-21T12:43:43.851Z,22.20
2019-05-21T12:46:14.621Z,22.20
2019-05-21T12:48:45.944Z,22.30
2019-05-21T12:51:16.578Z,22.40
2019-05-21T12:53:46.874Z,22.50
2019-05-21T12:56:17.051Z,22.70
2019-05-21T12:58:47.279Z,22.80
2019-05-21T13:01:18.485Z,23.00
2019-05-21T13:03:49.017Z,23.10
2019-05-21T13:06:19.338Z,23.10
2019-05-21T13:08:49.637Z,23.10
2019-05-21T13:11:19.922Z,23.20
2019-05-21T13:13:50.150Z,23.40
2019-05-21T13:18:50.216Z,23.80
2019-05-21T13:21:21.589Z,24.10
2019-05-21T13:23:51.891Z,24.20
2019-05-21T13:26:22.198Z,24.30
2019-05-21T13:31:22.231Z,25.00
2019-05-21T13:33:52.454Z,25.30
2019-05-21T13:36:22.862Z,25.40
2019-05-21T13:38:53.049Z,25.20
2019-05-21T13:41:23.834Z,25.10
2019-05-21T13:43:54.040Z,24.90
2019-05-21T13:46:24.333Z,24.50
2019-05-21T13:48:54.945Z,24.20
2019-05-21T13:51:25.612Z,24.00
2019-05-21T13:53:56.154Z,24.00
2019-05-21T13:56:26.430Z,24.10
2019-05-21T13:59:00.172Z,24.10
2019-05-21T14:01:40.789Z,24.10
2019-05-21T14:04:02.267Z,24.20
2019-05-21T14:07:10.724Z,24.20
2019-05-21T14:09:41.236Z,24.30
2019-05-21T14:12:12.239Z,24.30
2019-05-21T14:18:28.665Z,24.10
2019-05-21T14:24:33.698Z,24.30
2019-05-21T14:27:05.424Z,24.20
2019-05-21T14:37:09.063Z,24.00
2019-05-21T14:40:31.969Z,23.80
2019-05-21T14:43:00.154Z,23.40
2019-05-21T14:45:39.930Z,22.90
2019-05-21T14:51:56.739Z,22.40
2019-05-21T14:58:13.187Z,21.80
2019-05-21T15:04:25.680Z,21.40
2019-05-21T15:07:18.615Z,21.20
2019-05-21T15:09:48.451Z,21.10
2019-05-21T15:16:05.051Z,20.80
2019-05-21T15:19:16.872Z,20.70
2019-05-21T15:21:48.940Z,20.60
2019-05-21T15:24:19.241Z,20.60
2019-05-21T15:27:14.818Z,20.60
2019-05-21T15:29:45.455Z,20.60
2019-05-21T15:36:02.570Z,20.50
2019-05-21T15:38:49.225Z,20.40
2019-05-21T15:41:12.231Z,20.30
2019-05-21T15:43:40.222Z,20.20
2019-05-21T15:52:32.743Z,20.20
2019-05-21T15:55:06.720Z,20.30
2019-05-21T15:57:34.950Z,20.40
2019-05-21T16:00:10.583Z,20.40
2019-05-21T16:02:42.631Z,20.40
2019-05-21T16:05:13.258Z,20.50
2019-05-21T16:07:43.567Z,20.50
2019-05-21T16:10:14.355Z,20.50
2019-05-21T16:12:44.793Z,20.50
2019-05-21T16:15:15.392Z,20.40
2019-05-21T16:17:45.609Z,20.40
2019-05-21T16:20:16.706Z,20.40
2019-05-21T16:22:47.398Z,20.30
2019-05-21T16:25:17.672Z,20.20
2019-05-21T16:27:48.097Z,20.10
2019-05-21T16:30:18.730Z,20.10
2019-05-21T16:32:49.058Z,20.00
2019-05-21T16:35:20.392Z,20.00
2019-05-21T16:37:50.678Z,20.00
2019-05-21T16:40:21.463Z,20.00
2019-05-21T16:42:53.619Z,19.90
2019-05-21T16:45:24.836Z,19.80
2019-05-21T16:47:55.750Z,19.70
2019-05-21T16:50:27.367Z,19.70
2019-05-21T16:52:57.703Z,19.60
2019-05-21T16:55:28.003Z,19.40
2019-05-21T16:57:58.599Z,19.40
2019-05-21T17:00:29.525Z,19.40
2019-05-21T17:02:59.818Z,19.30
2019-05-21T17:05:30.311Z,19.30
2019-05-21T17:08:00.609Z,19.20
2019-05-21T17:10:31.854Z,19.20
2019-05-21T17:13:02.171Z,19.20
2019-05-21T17:15:32.463Z,19.10
2019-05-21T17:18:02.861Z,19.10
2019-05-21T17:20:34.303Z,19.10
2019-05-21T17:23:04.883Z,19.10
2019-05-21T17:25:35.471Z,19.10
2019-05-21T17:28:05.909Z,19.00
2019-05-21T17:30:36.430Z,18.90
2019-05-21T17:33:06.937Z,18.90
2019-05-21T17:35:39.086Z,18.80
2019-05-21T17:38:10.881Z,18.70
2019-05-21T17:40:41.140Z,18.70
2019-05-21T17:43:11.733Z,18.60
2019-05-21T17:45:42.290Z,18.60
2019-05-21T17:48:12.614Z,18.50
2019-05-21T17:50:42.875Z,18.50
2019-05-21T17:53:13.288Z,18.50
2019-05-21T17:55:43.630Z,18.40
2019-05-21T17:58:13.926Z,18.40
2019-05-21T18:00:48.386Z,18.30
2019-05-21T18:03:20.605Z,18.30
2019-05-21T18:05:52.621Z,18.30
2019-05-21T18:12:11.623Z,18.10
2019-05-21T18:22:35.633Z,18.00
2019-05-21T18:25:07.822Z,18.00
2019-05-21T18:31:33.355Z,17.90
2019-05-21T18:34:07.659Z,17.80
2019-05-21T18:36:38.087Z,17.80
2019-05-21T18:43:02.719Z,17.80
2019-05-21T18:45:34.225Z,17.80
2019-05-21T18:48:04.518Z,17.80
2019-05-21T18:50:53.406Z,17.80
2019-05-21T18:53:24.031Z,17.80
2019-05-21T18:55:54.406Z,17.70
2019-05-21T18:59:03.693Z,17.70
2019-05-21T19:01:34.110Z,17.60
2019-05-21T19:04:28.569Z,17.60
2019-05-21T19:07:01.137Z,17.60
2019-05-21T19:09:31.438Z,17.50
2019-05-21T19:19:24.179Z,17.40
2019-05-21T19:22:47.129Z,17.40
2019-05-21T19:28:39.433Z,17.40
2019-05-21T19:34:51.853Z,17.30
2019-05-21T19:37:27.422Z,17.30
2019-05-21T19:39:57.672Z,17.30
2019-05-21T19:42:29.416Z,17.30
2019-05-21T19:48:44.989Z,17.30
2019-05-21T19:55:11.387Z,17.20
2019-05-21T19:58:26.399Z,17.30
2019-05-21T20:01:16.791Z,17.20
2019-05-21T20:03:47.672Z,17.20
2019-05-21T20:06:18.621Z,17.10
2019-05-21T20:09:42.262Z,17.10
2019-05-21T20:19:33.006Z,17.00
2019-05-21T20:22:02.939Z,16.90
2019-05-21T20:28:24.792Z,16.90
2019-05-21T20:34:42.974Z,17.00
2019-05-21T20:40:50.956Z,16.90
2019-05-21T20:46:45.376Z,16.90
2019-05-21T20:52:57.435Z,16.90
2019-05-21T20:55:27.851Z,16.80
2019-05-21T20:57:58.170Z,16.80
2019-05-21T21:03:54.957Z,16.70
2019-05-21T21:06:35.657Z,16.70
2019-05-21T21:09:10.135Z,16.70
2019-05-21T21:11:41.778Z,16.70
2019-05-21T21:14:17.872Z,16.70
2019-05-21T21:16:48.898Z,16.70
2019-05-21T21:19:19.586Z,16.70
2019-05-21T21:25:22.670Z,16.70
2019-05-21T21:28:39.088Z,16.70
2019-05-21T21:34:51.692Z,16.60
2019-05-21T21:37:22.114Z,16.60
2019-05-21T21:40:29.461Z,16.50
2019-05-21T21:42:59.827Z,16.60
2019-05-21T21:45:30.173Z,16.60
2019-05-21T21:48:01.578Z,16.60
2019-05-21T21:50:33.487Z,16.60
2019-05-21T21:53:42.577Z,16.60
2019-05-21T21:56:13.211Z,16.60
2019-05-21T21:58:43.619Z,16.70
2019-05-21T22:01:59.959Z,16.70
2019-05-21T22:08:07.805Z,16.70
2019-05-21T22:10:39.393Z,16.70
2019-05-21T22:13:09.742Z,16.70
2019-05-21T22:15:41.200Z,16.70
2019-05-21T22:18:11.474Z,16.70
2019-05-21T22:20:41.798Z,16.70
2019-05-21T22:23:13.668Z,16.70
2019-05-21T22:25:44.965Z,16.80
2019-05-21T22:28:15.259Z,16.80
2019-05-21T22:30:45.788Z,16.70
2019-05-21T22:33:17.234Z,16.80
2019-05-21T22:35:48.692Z,16.70
2019-05-21T22:38:18.979Z,16.80
2019-05-21T22:40:50.669Z,16.80
2019-05-21T22:43:21.251Z,16.70
2019-05-21T22:45:51.866Z,16.70
2019-05-21T22:48:22.177Z,16.80
2019-05-21T22:50:53.417Z,16.70
2019-05-21T22:53:23.729Z,16.70
2019-05-21T22:55:54.188Z,16.70
2019-05-21T22:58:24.510Z,16.70
2019-05-21T23:00:54.915Z,16.70
2019-05-21T23:03:26.920Z,16.70
2019-05-21T23:05:57.315Z,16.70
2019-05-21T23:08:28.188Z,16.70
2019-05-21T23:10:58.684Z,16.70
2019-05-21T23:13:30.031Z,16.70
2019-05-21T23:16:00.779Z,16.60
2019-05-21T23:18:33.496Z,16.70
2019-05-21T23:21:11.299Z,16.60
2019-05-21T23:23:41.687Z,16.70
2019-05-21T23:26:12.764Z,16.70
2019-05-21T23:28:45.138Z,16.70
2019-05-21T23:31:14.838Z,16.70
2019-05-21T23:33:44.961Z,16.70
2019-05-21T23:36:15.617Z,16.60
2019-05-21T23:38:49.177Z,16.60
2019-05-21T23:41:20.171Z,16.60
2019-05-21T23:43:50.905Z,16.50
2019-05-21T23:46:21.475Z,16.50
2019-05-21T23:48:52.078Z,16.50
2019-05-21T23:51:22.424Z,16.50
2019-05-21T23:53:52.925Z,16.50
2019-05-21T23:56:23.191Z,16.50
2019-05-21T23:58:53.781Z,16.50
